sensor_id;sensor_type;location;lat;lon;timestamp;temperature;humidity
2653;DHT22;1336;48.692;9.144;2023-03-14T06:00:42;10.10;97.20
2653;DHT22;1336;48.692;9.144;2023-03-14T06:01:34;10.10;97.20
2653;DHT22;1336;48.692;9.144;2023-03-14T06:02:25;10.10;97.20
2653;DHT22;1336;48.692;9.144;2023-03-14T06:03:17;10.00;97.20
2653;DHT22;1336;48.692;9.144;2023-03-14T06:04:08;10.00;97.20
2653;DHT22;1336;48.692;9.144;2023-03-14T06:04:59;10.00;97.20
2653;DHT22;1336;48.692;9.144;2023-03-14T06:05:50;10.10;97.20
2653;DHT22;1336;48.692;9.144;2023-03-14T06:06:42;10.10;97.20
2653;DHT22;1336;48.692;9.144;2023-03-14T06:07:33;10.10;97.20
2653;DHT22;1336;48.692;9.144;2023-03-14T06:08:25;10.10;97.20
2653;DHT22;1336;48.692;9.144;2023-03-14T06:09:15;10.10;97.20
2653;DHT22;1336;48.692;9.144;2023-03-14T06:10:10;10.10;97.20
2653;DHT22;1336;48.692;9.144;2023-03-14T06:11:03;10.10;97.20
2653;DHT22;1336;48.692;9.144;2023-03-14T06:11:54;10.10;97.20
2653;DHT22;1336;48.692;9.144;2023-03-14T06:12:45;10.10;97.20
2653;DHT22;1336;48.692;9.144;2023-03-14T06:13:37;10.20;97.20
2653;DHT22;1336;48.692;9.144;2023-03-14T06:14:28;10.20;97.20
2653;DHT22;1336;48.692;9.144;2023-03-14T06:15:20;10.20;97.20
2653;DHT22;1336;48.692;9.144;2023-03-14T06:16:12;10.20;97.20
2653;DHT22;1336;48.692;9.144;2023-03-14T06:17:04;10.20;97.20
2653;DHT22;1336;48.692;9.144;2023-03-14T06:17:55;10.20;97.20
2653;DHT22;1336;48.692;9.144;2023-03-14T06:18:47;10.30;97.20
2653;DHT22;1336;48.692;9.144;2023-03-14T06:19:39;10.30;97.20
2653;DHT22;1336;48.692;9.144;2023-03-14T06:20:31;10.30;97.20
2653;DHT22;1336;48.692;9.144;2023-03-14T06:21:23;10.30;97.20
2653;DHT22;1336;48.692;9.144;2023-03-14T06:22:15;10.30;97.20
2653;DHT22;1336;48.692;9.144;2023-03-14T06:23:06;10.30;97.20
2653;DHT22;1336;48.692;9.144;2023-03-14T06:23:58;10.30;97.20
2653;DHT22;1336;48.692;9.144;2023-03-14T06:24:48;10.30;97.20
2653;DHT22;1336;48.692;9.144;2023-03-14T06:25:40;10.40;97.20
2653;DHT22;1336;48.692;9.144;2023-03-14T06:26:31;10.40;97.20
2653;DHT22;1336;48.692;9.144;2023-03-14T06:27:23;10.40;97.20
2653;DHT22;1336;48.692;9.144;2023-03-14T06:28:13;10.40;97.20
2653;DHT22;1336;48.692;9.144;2023-03-14T06:29:05;10.40;97.20
2653;DHT22;1336;48.692;9.144;2023-03-14T06:29:56;10.40;97.20
2653;DHT22;1336;48.692;9.144;2023-03-14T06:30:48;10.40;97.20
2653;DHT22;1336;48.692;9.144;2023-03-14T06:31:40;10.40;97.20
2653;DHT22;1336;48.692;9.144;2023-03-14T06:32:31;10.40;97.20
2653;DHT22;1336;48.692;9.144;2023-03-14T06:33:22;10.40;97.20
2653;DHT22;1336;48.692;9.144;2023-03-14T06:34:14;10.40;97.20
2653;DHT22;1336;48.692;9.144;2023-03-14T06:35:05;10.40;97.20
2653;DHT22;1336;48.692;9.144;2023-03-14T06:35:57;10.40;97.20
2653;DHT22;1336;48.692;9.144;2023-03-14T06:36:48;10.40;97.20
2653;DHT22;1336;48.692;9.144;2023-03-14T06:37:40;10.40;97.20
2653;DHT22;1336;48.692;9.144;2023-03-14T06:38:31;10.40;97.20
2653;DHT22;1336;48.692;9.144;2023-03-14T06:39:23;10.40;97.20
2653;DHT22;1336;48.692;9.144;2023-03-14T06:40:14;10.40;97.20
2653;DHT22;1336;48.692;9.144;2023-03-14T06:41:08;10.40;97.20
2653;DHT22;1336;48.692;9.144;2023-03-14T06:41:58;10.40;97.20
2653;DHT22;1336;48.692;9.144;2023-03-14T06:42:50;10.40;97.20
2653;DHT22;1336;48.692;9.144;2023-03-14T06:43:41;10.40;97.20
2653;DHT22;1336;48.692;9.144;2023-03-14T06:44:33;10.40;97.20
2653;DHT22;1336;48.692;9.144;2023-03-14T06:45:24;10.40;97.20
2653;DHT22;1336;48.692;9.144;2023-03-14T06:46:16;10.40;97.20
2653;DHT22;1336;48.692;9.144;2023-03-14T06:47:08;10.50;97.20
2653;DHT22;1336;48.692;9.144;2023-03-14T06:48:00;10.50;97.20
2653;DHT22;1336;48.692;9.144;2023-03-14T06:48:50;10.60;97.20
2653;DHT22;1336;48.692;9.144;2023-03-14T06:49:42;10.60;97.20
2653;DHT22;1336;48.692;9.144;2023-03-14T06:50:33;10.60;97.20
2653;DHT22;1336;48.692;9.144;2023-03-14T06:51:25;10.70;97.20
2653;DHT22;1336;48.692;9.144;2023-03-14T06:52:16;10.70;97.20
2653;DHT22;1336;48.692;9.144;2023-03-14T06:53:07;10.80;97.20
2653;DHT22;1336;48.692;9.144;2023-03-14T06:53:58;10.80;97.20
2653;DHT22;1336;48.692;9.144;2023-03-14T06:54:50;10.90;97.20
2653;DHT22;1336;48.692;9.144;2023-03-14T06:55:41;11.00;97.20
2653;DHT22;1336;48.692;9.144;2023-03-14T06:56:34;11.00;97.20
2653;DHT22;1336;48.692;9.144;2023-03-14T06:57:25;11.10;97.20
2653;DHT22;1336;48.692;9.144;2023-03-14T06:58:17;11.20;97.20
2653;DHT22;1336;48.692;9.144;2023-03-14T06:59:09;11.20;97.20
2653;DHT22;1336;48.692;9.144;2023-03-14T07:00:01;11.30;97.20
2653;DHT22;1336;48.692;9.144;2023-03-14T07:00:54;11.30;97.20
2653;DHT22;1336;48.692;9.144;2023-03-14T07:01:49;11.30;97.20
2653;DHT22;1336;48.692;9.144;2023-03-14T07:02:42;11.30;97.20
2653;DHT22;1336;48.692;9.144;2023-03-14T07:03:34;11.30;97.20
2653;DHT22;1336;48.692;9.144;2023-03-14T07:04:25;11.40;97.20
2653;DHT22;1336;48.692;9.144;2023-03-14T07:05:17;11.40;97.20
2653;DHT22;1336;48.692;9.144;2023-03-14T07:06:08;11.40;97.20
2653;DHT22;1336;48.692;9.144;2023-03-14T07:07:00;11.40;97.20
2653;DHT22;1336;48.692;9.144;2023-03-14T07:07:50;11.40;97.20
2653;DHT22;1336;48.692;9.144;2023-03-14T07:08:42;11.50;97.20
2653;DHT22;1336;48.692;9.144;2023-03-14T07:09:33;11.50;97.20
2653;DHT22;1336;48.692;9.144;2023-03-14T07:10:25;11.50;97.20
2653;DHT22;1336;48.692;9.144;2023-03-14T07:11:16;11.50;97.20
2653;DHT22;1336;48.692;9.144;2023-03-14T07:12:08;11.50;97.20
2653;DHT22;1336;48.692;9.144;2023-03-14T07:12:58;11.60;97.20
2653;DHT22;1336;48.692;9.144;2023-03-14T07:13:50;11.60;97.20
2653;DHT22;1336;48.692;9.144;2023-03-14T07:14:41;11.60;97.20
2653;DHT22;1336;48.692;9.144;2023-03-14T07:15:33;11.70;97.20
2653;DHT22;1336;48.692;9.144;2023-03-14T07:16:23;11.70;97.20
2653;DHT22;1336;48.692;9.144;2023-03-14T07:17:19;11.80;97.20
2653;DHT22;1336;48.692;9.144;2023-03-14T07:18:12;11.80;97.20
2653;DHT22;1336;48.692;9.144;2023-03-14T07:19:03;11.90;97.20
2653;DHT22;1336;48.692;9.144;2023-03-14T07:19:54;11.90;97.20
2653;DHT22;1336;48.692;9.144;2023-03-14T07:20:45;12.00;97.20
2653;DHT22;1336;48.692;9.144;2023-03-14T07:21:37;12.00;97.20
2653;DHT22;1336;48.692;9.144;2023-03-14T07:22:28;12.00;97.20
2653;DHT22;1336;48.692;9.144;2023-03-14T07:23:19;12.10;97.20
2653;DHT22;1336;48.692;9.144;2023-03-14T07:24:10;12.10;97.20
2653;DHT22;1336;48.692;9.144;2023-03-14T07:25:03;12.10;97.20
2653;DHT22;1336;48.692;9.144;2023-03-14T07:25:54;12.20;97.20
2653;DHT22;1336;48.692;9.144;2023-03-14T07:26:46;12.20;97.20
2653;DHT22;1336;48.692;9.144;2023-03-14T07:27:37;12.30;97.20
2653;DHT22;1336;48.692;9.144;2023-03-14T07:28:28;12.30;97.20
2653;DHT22;1336;48.692;9.144;2023-03-14T07:29:19;12.30;97.20
2653;DHT22;1336;48.692;9.144;2023-03-14T07:30:12;12.40;97.20
2653;DHT22;1336;48.692;9.144;2023-03-14T07:31:03;12.50;97.20
2653;DHT22;1336;48.692;9.144;2023-03-14T07:31:55;12.50;97.20
2653;DHT22;1336;48.692;9.144;2023-03-14T07:32:46;12.60;97.20
2653;DHT22;1336;48.692;9.144;2023-03-14T07:33:39;12.70;97.20
2653;DHT22;1336;48.692;9.144;2023-03-14T07:34:29;12.80;97.20
2653;DHT22;1336;48.692;9.144;2023-03-14T07:35:21;12.90;97.20
2653;DHT22;1336;48.692;9.144;2023-03-14T07:36:12;12.90;97.20
2653;DHT22;1336;48.692;9.144;2023-03-14T07:37:04;13.00;97.20
2653;DHT22;1336;48.692;9.144;2023-03-14T07:37:55;13.10;97.20
2653;DHT22;1336;48.692;9.144;2023-03-14T07:38:47;13.20;97.20
2653;DHT22;1336;48.692;9.144;2023-03-14T07:39:38;13.30;97.20
2653;DHT22;1336;48.692;9.144;2023-03-14T07:40:29;13.30;97.20
2653;DHT22;1336;48.692;9.144;2023-03-14T07:41:20;13.30;97.20
2653;DHT22;1336;48.692;9.144;2023-03-14T07:42:13;13.30;97.20
2653;DHT22;1336;48.692;9.144;2023-03-14T07:43:04;13.30;97.20
2653;DHT22;1336;48.692;9.144;2023-03-14T07:43:55;13.20;97.20
2653;DHT22;1336;48.692;9.144;2023-03-14T07:44:46;13.20;97.20
2653;DHT22;1336;48.692;9.144;2023-03-14T07:45:38;13.10;97.20
2653;DHT22;1336;48.692;9.144;2023-03-14T07:46:29;13.00;97.20
2653;DHT22;1336;48.692;9.144;2023-03-14T07:47:20;12.90;97.20
2653;DHT22;1336;48.692;9.144;2023-03-14T07:48:11;12.90;97.20
2653;DHT22;1336;48.692;9.144;2023-03-14T07:49:04;12.90;97.20
2653;DHT22;1336;48.692;9.144;2023-03-14T07:49:55;12.90;97.20
2653;DHT22;1336;48.692;9.144;2023-03-14T07:50:48;13.00;97.20
2653;DHT22;1336;48.692;9.144;2023-03-14T07:51:39;13.00;97.20
2653;DHT22;1336;48.692;9.144;2023-03-14T07:52:31;13.00;97.20
2653;DHT22;1336;48.692;9.144;2023-03-14T07:53:22;12.90;97.20
2653;DHT22;1336;48.692;9.144;2023-03-14T07:54:14;12.90;97.20
2653;DHT22;1336;48.692;9.144;2023-03-14T07:55:06;13.00;97.20
2653;DHT22;1336;48.692;9.144;2023-03-14T07:55:58;13.00;97.20
2653;DHT22;1336;48.692;9.144;2023-03-14T07:56:48;13.00;97.20
2653;DHT22;1336;48.692;9.144;2023-03-14T07:57:40;13.10;97.20
2653;DHT22;1336;48.692;9.144;2023-03-14T07:58:31;13.20;97.20
2653;DHT22;1336;48.692;9.144;2023-03-14T07:59:22;13.30;97.20
2653;DHT22;1336;48.692;9.144;2023-03-14T08:00:14;13.40;97.20
2653;DHT22;1336;48.692;9.144;2023-03-14T08:01:06;13.50;97.20
2653;DHT22;1336;48.692;9.144;2023-03-14T08:01:57;13.70;97.20
2653;DHT22;1336;48.692;9.144;2023-03-14T08:02:49;13.70;97.20
2653;DHT22;1336;48.692;9.144;2023-03-14T08:03:39;13.80;97.20
2653;DHT22;1336;48.692;9.144;2023-03-14T08:04:32;13.80;97.20
2653;DHT22;1336;48.692;9.144;2023-03-14T08:05:23;13.80;97.20
2653;DHT22;1336;48.692;9.144;2023-03-14T08:06:15;13.80;97.20
2653;DHT22;1336;48.692;9.144;2023-03-14T08:07:06;13.80;97.20
2653;DHT22;1336;48.692;9.144;2023-03-14T08:07:57;13.80;97.20
2653;DHT22;1336;48.692;9.144;2023-03-14T08:08:48;13.80;97.20
2653;DHT22;1336;48.692;9.144;2023-03-14T08:09:40;13.90;97.20
2653;DHT22;1336;48.692;9.144;2023-03-14T08:10:31;13.90;97.20
2653;DHT22;1336;48.692;9.144;2023-03-14T08:11:23;14.00;97.20
2653;DHT22;1336;48.692;9.144;2023-03-14T08:12:13;14.00;97.20
2653;DHT22;1336;48.692;9.144;2023-03-14T08:13:06;14.00;97.20
2653;DHT22;1336;48.692;9.144;2023-03-14T08:13:57;14.00;97.20
2653;DHT22;1336;48.692;9.144;2023-03-14T08:14:48;13.90;97.20
2653;DHT22;1336;48.692;9.144;2023-03-14T08:15:39;14.00;97.20
2653;DHT22;1336;48.692;9.144;2023-03-14T08:16:31;14.00;97.20
2653;DHT22;1336;48.692;9.144;2023-03-14T08:17:21;14.00;97.20
2653;DHT22;1336;48.692;9.144;2023-03-14T08:18:13;14.00;97.20
2653;DHT22;1336;48.692;9.144;2023-03-14T08:19:04;14.00;97.20
2653;DHT22;1336;48.692;9.144;2023-03-14T08:19:57;14.00;97.20
2653;DHT22;1336;48.692;9.144;2023-03-14T08:20:48;14.00;97.20
2653;DHT22;1336;48.692;9.144;2023-03-14T08:21:39;14.00;97.20
2653;DHT22;1336;48.692;9.144;2023-03-14T08:22:30;14.00;97.20
2653;DHT22;1336;48.692;9.144;2023-03-14T08:23:22;13.90;97.20
2653;DHT22;1336;48.692;9.144;2023-03-14T08:24:12;13.90;97.20
2653;DHT22;1336;48.692;9.144;2023-03-14T08:25:05;13.90;97.20
2653;DHT22;1336;48.692;9.144;2023-03-14T08:25:56;13.90;97.20
2653;DHT22;1336;48.692;9.144;2023-03-14T08:26:47;13.90;97.20
2653;DHT22;1336;48.692;9.144;2023-03-14T08:27:38;14.00;97.20
2653;DHT22;1336;48.692;9.144;2023-03-14T08:28:31;14.00;97.20
2653;DHT22;1336;48.692;9.144;2023-03-14T08:29:23;14.00;97.20
2653;DHT22;1336;48.692;9.144;2023-03-14T08:30:16;14.10;97.20
2653;DHT22;1336;48.692;9.144;2023-03-14T08:31:07;14.10;97.20
2653;DHT22;1336;48.692;9.144;2023-03-14T08:31:59;14.20;97.20
2653;DHT22;1336;48.692;9.144;2023-03-14T08:32:50;14.40;97.20
2653;DHT22;1336;48.692;9.144;2023-03-14T08:33:42;14.60;97.20
2653;DHT22;1336;48.692;9.144;2023-03-14T08:34:33;14.90;97.20
2653;DHT22;1336;48.692;9.144;2023-03-14T08:35:26;15.10;97.20
2653;DHT22;1336;48.692;9.144;2023-03-14T08:36:18;15.30;97.20
2653;DHT22;1336;48.692;9.144;2023-03-14T08:37:09;15.40;97.20
2653;DHT22;1336;48.692;9.144;2023-03-14T08:38:00;15.50;97.20
2653;DHT22;1336;48.692;9.144;2023-03-14T08:38:52;15.60;97.20
2653;DHT22;1336;48.692;9.144;2023-03-14T08:39:43;15.70;97.20
2653;DHT22;1336;48.692;9.144;2023-03-14T08:40:35;15.90;97.20
2653;DHT22;1336;48.692;9.144;2023-03-14T08:41:25;16.00;97.20
2653;DHT22;1336;48.692;9.144;2023-03-14T08:42:17;16.10;97.20
2653;DHT22;1336;48.692;9.144;2023-03-14T08:43:08;16.20;97.20
2653;DHT22;1336;48.692;9.144;2023-03-14T08:44:00;16.30;97.20
2653;DHT22;1336;48.692;9.144;2023-03-14T08:44:51;16.50;97.20
2653;DHT22;1336;48.692;9.144;2023-03-14T08:45:43;16.60;97.20
2653;DHT22;1336;48.692;9.144;2023-03-14T08:46:34;16.60;97.20
2653;DHT22;1336;48.692;9.144;2023-03-14T08:47:25;16.60;97.20
2653;DHT22;1336;48.692;9.144;2023-03-14T08:48:16;16.60;97.20
2653;DHT22;1336;48.692;9.144;2023-03-14T08:49:09;16.60;97.20
2653;DHT22;1336;48.692;9.144;2023-03-14T08:50:00;16.60;97.20
2653;DHT22;1336;48.692;9.144;2023-03-14T08:50:53;16.60;97.20
2653;DHT22;1336;48.692;9.144;2023-03-14T08:51:44;16.40;97.20
2653;DHT22;1336;48.692;9.144;2023-03-14T08:52:36;16.30;97.20
2653;DHT22;1336;48.692;9.144;2023-03-14T08:53:28;16.10;97.20
2653;DHT22;1336;48.692;9.144;2023-03-14T08:54:19;16.00;97.20
2653;DHT22;1336;48.692;9.144;2023-03-14T08:55:10;15.80;97.20
2653;DHT22;1336;48.692;9.144;2023-03-14T08:56:02;15.70;97.20
2653;DHT22;1336;48.692;9.144;2023-03-14T08:56:54;15.60;97.20
2653;DHT22;1336;48.692;9.144;2023-03-14T08:57:45;15.50;97.20
2653;DHT22;1336;48.692;9.144;2023-03-14T08:58:37;15.40;97.20
2653;DHT22;1336;48.692;9.144;2023-03-14T08:59:28;15.20;97.20
2653;DHT22;1336;48.692;9.144;2023-03-14T09:00:20;15.10;97.20
2653;DHT22;1336;48.692;9.144;2023-03-14T09:01:11;15.00;97.20
2653;DHT22;1336;48.692;9.144;2023-03-14T09:02:03;15.00;97.20
2653;DHT22;1336;48.692;9.144;2023-03-14T09:02:54;14.90;97.20
2653;DHT22;1336;48.692;9.144;2023-03-14T09:03:45;14.90;97.20
2653;DHT22;1336;48.692;9.144;2023-03-14T09:04:37;14.90;97.20
2653;DHT22;1336;48.692;9.144;2023-03-14T09:05:32;14.80;97.20
2653;DHT22;1336;48.692;9.144;2023-03-14T09:06:25;14.70;97.20
2653;DHT22;1336;48.692;9.144;2023-03-14T09:07:15;14.70;97.20
2653;DHT22;1336;48.692;9.144;2023-03-14T09:08:07;14.60;97.20
2653;DHT22;1336;48.692;9.144;2023-03-14T09:08:58;14.60;97.20
2653;DHT22;1336;48.692;9.144;2023-03-14T09:09:49;14.60;97.20
2653;DHT22;1336;48.692;9.144;2023-03-14T09:10:40;14.70;97.20
2653;DHT22;1336;48.692;9.144;2023-03-14T09:11:33;14.80;97.20
2653;DHT22;1336;48.692;9.144;2023-03-14T09:12:24;14.90;97.20
2653;DHT22;1336;48.692;9.144;2023-03-14T09:13:16;14.90;97.20
2653;DHT22;1336;48.692;9.144;2023-03-14T09:14:06;15.00;97.20
2653;DHT22;1336;48.692;9.144;2023-03-14T09:14:58;15.00;97.20
2653;DHT22;1336;48.692;9.144;2023-03-14T09:15:50;14.90;97.20
2653;DHT22;1336;48.692;9.144;2023-03-14T09:16:42;14.90;97.20
2653;DHT22;1336;48.692;9.144;2023-03-14T09:17:33;15.00;97.20
2653;DHT22;1336;48.692;9.144;2023-03-14T09:18:25;15.00;97.20
2653;DHT22;1336;48.692;9.144;2023-03-14T09:19:15;15.10;97.20
2653;DHT22;1336;48.692;9.144;2023-03-14T09:20:08;15.10;97.20
2653;DHT22;1336;48.692;9.144;2023-03-14T09:20:59;15.20;97.20
2653;DHT22;1336;48.692;9.144;2023-03-14T09:21:52;15.20;97.20
2653;DHT22;1336;48.692;9.144;2023-03-14T09:22:43;15.20;97.20
2653;DHT22;1336;48.692;9.144;2023-03-14T09:23:34;15.20;97.20
2653;DHT22;1336;48.692;9.144;2023-03-14T09:24:25;15.20;97.20
2653;DHT22;1336;48.692;9.144;2023-03-14T09:25:17;15.20;97.20
2653;DHT22;1336;48.692;9.144;2023-03-14T09:26:08;15.10;97.20
2653;DHT22;1336;48.692;9.144;2023-03-14T09:26:59;15.10;97.20
2653;DHT22;1336;48.692;9.144;2023-03-14T09:27:50;15.10;97.20
2653;DHT22;1336;48.692;9.144;2023-03-14T09:28:42;15.00;97.20
2653;DHT22;1336;48.692;9.144;2023-03-14T09:29:33;14.90;97.20
2653;DHT22;1336;48.692;9.144;2023-03-14T09:30:24;14.80;97.20
2653;DHT22;1336;48.692;9.144;2023-03-14T09:31:15;14.70;97.20
2653;DHT22;1336;48.692;9.144;2023-03-14T09:32:07;14.60;97.20
2653;DHT22;1336;48.692;9.144;2023-03-14T09:32:57;14.50;97.20
2653;DHT22;1336;48.692;9.144;2023-03-14T09:33:49;14.50;97.20
2653;DHT22;1336;48.692;9.144;2023-03-14T09:34:40;14.40;97.20
2653;DHT22;1336;48.692;9.144;2023-03-14T09:35:33;14.30;97.20
2653;DHT22;1336;48.692;9.144;2023-03-14T09:36:24;14.20;97.20
2653;DHT22;1336;48.692;9.144;2023-03-14T09:37:17;14.20;97.20
2653;DHT22;1336;48.692;9.144;2023-03-14T09:38:08;14.10;97.20
2653;DHT22;1336;48.692;9.144;2023-03-14T09:39:00;14.00;97.20
2653;DHT22;1336;48.692;9.144;2023-03-14T09:39:50;14.00;97.20
2653;DHT22;1336;48.692;9.144;2023-03-14T09:40:42;13.90;97.20
2653;DHT22;1336;48.692;9.144;2023-03-14T09:41:34;13.80;97.20
2653;DHT22;1336;48.692;9.144;2023-03-14T09:42:27;13.80;97.20
2653;DHT22;1336;48.692;9.144;2023-03-14T09:43:18;13.70;97.20
2653;DHT22;1336;48.692;9.144;2023-03-14T09:44:14;13.70;97.20
2653;DHT22;1336;48.692;9.144;2023-03-14T09:45:11;13.70;97.20
2653;DHT22;1336;48.692;9.144;2023-03-14T09:46:04;13.60;97.20
2653;DHT22;1336;48.692;9.144;2023-03-14T09:46:58;13.60;97.20
2653;DHT22;1336;48.692;9.144;2023-03-14T09:47:53;13.60;97.20
2653;DHT22;1336;48.692;9.144;2023-03-14T09:48:46;13.60;97.20
2653;DHT22;1336;48.692;9.144;2023-03-14T09:49:39;13.60;97.20
2653;DHT22;1336;48.692;9.144;2023-03-14T09:50:37;13.50;97.20
2653;DHT22;1336;48.692;9.144;2023-03-14T09:51:29;13.50;97.20
2653;DHT22;1336;48.692;9.144;2023-03-14T09:52:26;13.50;97.20
2653;DHT22;1336;48.692;9.144;2023-03-14T09:53:22;13.50;97.20
2653;DHT22;1336;48.692;9.144;2023-03-14T09:54:26;13.50;97.20
2653;DHT22;1336;48.692;9.144;2023-03-14T09:55:21;13.50;97.20
2653;DHT22;1336;48.692;9.144;2023-03-14T09:56:16;13.50;97.20
2653;DHT22;1336;48.692;9.144;2023-03-14T09:57:12;13.40;97.20
2653;DHT22;1336;48.692;9.144;2023-03-14T09:58:09;13.50;97.20
2653;DHT22;1336;48.692;9.144;2023-03-14T09:59:03;13.50;97.20
2653;DHT22;1336;48.692;9.144;2023-03-14T09:59:58;13.50;97.20
2653;DHT22;1336;48.692;9.144;2023-03-14T10:00:56;13.50;97.20
2653;DHT22;1336;48.692;9.144;2023-03-14T10:01:47;13.60;97.20
2653;DHT22;1336;48.692;9.144;2023-03-14T10:02:40;13.60;97.20
2653;DHT22;1336;48.692;9.144;2023-03-14T10:03:32;13.60;97.20
2653;DHT22;1336;48.692;9.144;2023-03-14T10:04:25;13.60;97.20
2653;DHT22;1336;48.692;9.144;2023-03-14T10:05:17;13.60;97.20
2653;DHT22;1336;48.692;9.144;2023-03-14T10:06:11;13.70;97.20
2653;DHT22;1336;48.692;9.144;2023-03-14T10:07:02;13.90;97.20
2653;DHT22;1336;48.692;9.144;2023-03-14T10:07:55;14.70;97.20
2653;DHT22;1336;48.692;9.144;2023-03-14T10:08:46;15.00;97.20
2653;DHT22;1336;48.692;9.144;2023-03-14T10:09:38;15.60;97.20
2653;DHT22;1336;48.692;9.144;2023-03-14T10:10:29;16.70;97.20
2653;DHT22;1336;48.692;9.144;2023-03-14T10:11:20;17.30;97.20
2653;DHT22;1336;48.692;9.144;2023-03-14T10:12:11;17.90;97.20
2653;DHT22;1336;48.692;9.144;2023-03-14T10:13:15;18.20;97.20
2653;DHT22;1336;48.692;9.144;2023-03-14T10:14:08;18.40;97.20
2653;DHT22;1336;48.692;9.144;2023-03-14T10:15:03;19.50;97.20
2653;DHT22;1336;48.692;9.144;2023-03-14T10:15:58;20.80;97.20
2653;DHT22;1336;48.692;9.144;2023-03-14T10:16:50;21.20;97.20
2653;DHT22;1336;48.692;9.144;2023-03-14T10:17:44;22.30;97.20
2653;DHT22;1336;48.692;9.144;2023-03-14T10:18:37;23.50;97.20
2653;DHT22;1336;48.692;9.144;2023-03-14T10:19:28;24.80;97.20
2653;DHT22;1336;48.692;9.144;2023-03-14T10:20:29;26.20;97.20
2653;DHT22;1336;48.692;9.144;2023-03-14T10:21:27;27.90;97.20
2653;DHT22;1336;48.692;9.144;2023-03-14T10:22:20;28.90;97.20
2653;DHT22;1336;48.692;9.144;2023-03-14T10:23:27;29.10;97.20
2653;DHT22;1336;48.692;9.144;2023-03-14T10:24:22;28.80;97.20
2653;DHT22;1336;48.692;9.144;2023-03-14T10:25:26;28.00;97.20
2653;DHT22;1336;48.692;9.144;2023-03-14T10:26:23;27.00;97.20
2653;DHT22;1336;48.692;9.144;2023-03-14T10:27:19;26.20;97.20
2653;DHT22;1336;48.692;9.144;2023-03-14T10:28:23;25.30;97.20
2653;DHT22;1336;48.692;9.144;2023-03-14T10:29:15;24.40;97.20
2653;DHT22;1336;48.692;9.144;2023-03-14T10:30:13;23.50;97.20
2653;DHT22;1336;48.692;9.144;2023-03-14T10:31:18;22.60;97.20
2653;DHT22;1336;48.692;9.144;2023-03-14T10:32:19;21.60;97.20
2653;DHT22;1336;48.692;9.144;2023-03-14T10:33:16;20.80;97.20
2653;DHT22;1336;48.692;9.144;2023-03-14T10:34:15;20.10;97.20
2653;DHT22;1336;48.692;9.144;2023-03-14T10:35:22;19.40;97.20
2653;DHT22;1336;48.692;9.144;2023-03-14T10:36:20;18.90;97.20
2653;DHT22;1336;48.692;9.144;2023-03-14T10:37:18;18.60;97.20
2653;DHT22;1336;48.692;9.144;2023-03-14T10:38:13;18.30;97.20
2653;DHT22;1336;48.692;9.144;2023-03-14T10:39:25;18.30;97.20
2653;DHT22;1336;48.692;9.144;2023-03-14T10:40:19;18.20;97.20
2653;DHT22;1336;48.692;9.144;2023-03-14T10:41:17;18.20;97.20
2653;DHT22;1336;48.692;9.144;2023-03-14T10:42:16;18.10;97.20
2653;DHT22;1336;48.692;9.144;2023-03-14T10:43:14;17.70;97.20
2653;DHT22;1336;48.692;9.144;2023-03-14T10:44:08;17.40;97.20
2653;DHT22;1336;48.692;9.144;2023-03-14T10:45:04;17.10;97.20
2653;DHT22;1336;48.692;9.144;2023-03-14T10:45:57;16.90;97.20
2653;DHT22;1336;48.692;9.144;2023-03-14T10:46:56;16.70;97.20
2653;DHT22;1336;48.692;9.144;2023-03-14T10:47:49;16.50;97.20
2653;DHT22;1336;48.692;9.144;2023-03-14T10:48:41;16.30;97.20
2653;DHT22;1336;48.692;9.144;2023-03-14T10:49:33;16.10;97.20
2653;DHT22;1336;48.692;9.144;2023-03-14T10:50:27;16.00;97.20
2653;DHT22;1336;48.692;9.144;2023-03-14T10:51:22;15.80;97.20
2653;DHT22;1336;48.692;9.144;2023-03-14T10:52:20;15.70;97.20
2653;DHT22;1336;48.692;9.144;2023-03-14T10:53:17;15.60;97.20
2653;DHT22;1336;48.692;9.144;2023-03-14T10:54:14;15.50;97.20
2653;DHT22;1336;48.692;9.144;2023-03-14T10:55:11;15.40;97.20
2653;DHT22;1336;48.692;9.144;2023-03-14T10:56:03;15.30;97.20
2653;DHT22;1336;48.692;9.144;2023-03-14T10:56:59;15.30;97.20
2653;DHT22;1336;48.692;9.144;2023-03-14T10:57:52;15.20;97.20
2653;DHT22;1336;48.692;9.144;2023-03-14T10:58:44;15.10;97.20
2653;DHT22;1336;48.692;9.144;2023-03-14T10:59:38;15.00;97.20
2653;DHT22;1336;48.692;9.144;2023-03-14T11:00:29;14.90;97.20
2653;DHT22;1336;48.692;9.144;2023-03-14T11:01:36;14.80;97.20
2653;DHT22;1336;48.692;9.144;2023-03-14T11:02:43;14.70;97.20
2653;DHT22;1336;48.692;9.144;2023-03-14T11:03:43;14.60;97.20
2653;DHT22;1336;48.692;9.144;2023-03-14T11:04:52;14.60;97.20
2653;DHT22;1336;48.692;9.144;2023-03-14T11:05:48;14.50;97.20
2653;DHT22;1336;48.692;9.144;2023-03-14T11:06:44;14.50;97.20
2653;DHT22;1336;48.692;9.144;2023-03-14T11:07:39;14.50;97.20
2653;DHT22;1336;48.692;9.144;2023-03-14T11:08:35;14.50;97.20
2653;DHT22;1336;48.692;9.144;2023-03-14T11:09:33;14.50;97.20
2653;DHT22;1336;48.692;9.144;2023-03-14T11:10:31;14.50;97.20
2653;DHT22;1336;48.692;9.144;2023-03-14T11:11:25;14.50;97.20
2653;DHT22;1336;48.692;9.144;2023-03-14T11:12:34;14.50;97.20
2653;DHT22;1336;48.692;9.144;2023-03-14T11:13:33;14.40;97.20
2653;DHT22;1336;48.692;9.144;2023-03-14T11:14:31;14.40;97.20
2653;DHT22;1336;48.692;9.144;2023-03-14T11:15:29;14.40;97.20
2653;DHT22;1336;48.692;9.144;2023-03-14T11:16:25;14.30;97.20
2653;DHT22;1336;48.692;9.144;2023-03-14T11:17:25;14.30;97.20
2653;DHT22;1336;48.692;9.144;2023-03-14T11:18:50;14.20;97.20
2653;DHT22;1336;48.692;9.144;2023-03-14T11:19:56;14.20;97.20
2653;DHT22;1336;48.692;9.144;2023-03-14T11:20:54;14.10;97.20
2653;DHT22;1336;48.692;9.144;2023-03-14T11:21:54;14.10;97.20
2653;DHT22;1336;48.692;9.144;2023-03-14T11:22:50;14.10;97.20
2653;DHT22;1336;48.692;9.144;2023-03-14T11:23:54;14.10;97.20
2653;DHT22;1336;48.692;9.144;2023-03-14T11:25:07;14.10;97.20
2653;DHT22;1336;48.692;9.144;2023-03-14T11:26:15;14.00;97.20
2653;DHT22;1336;48.692;9.144;2023-03-14T11:27:16;14.00;97.20
2653;DHT22;1336;48.692;9.144;2023-03-14T11:28:16;14.00;97.20
2653;DHT22;1336;48.692;9.144;2023-03-14T11:29:18;13.90;97.20
2653;DHT22;1336;48.692;9.144;2023-03-14T11:30:19;13.90;97.20
2653;DHT22;1336;48.692;9.144;2023-03-14T11:31:16;13.90;97.20
2653;DHT22;1336;48.692;9.144;2023-03-14T11:32:13;13.90;97.20
2653;DHT22;1336;48.692;9.144;2023-03-14T11:33:11;13.90;97.20
2653;DHT22;1336;48.692;9.144;2023-03-14T11:34:12;13.90;97.20
2653;DHT22;1336;48.692;9.144;2023-03-14T11:35:15;13.90;97.20
2653;DHT22;1336;48.692;9.144;2023-03-14T11:36:08;13.90;97.20
2653;DHT22;1336;48.692;9.144;2023-03-14T11:37:03;13.80;97.20
2653;DHT22;1336;48.692;9.144;2023-03-14T11:38:02;13.80;97.20
2653;DHT22;1336;48.692;9.144;2023-03-14T11:38:57;13.70;97.20
2653;DHT22;1336;48.692;9.144;2023-03-14T11:39:56;13.60;97.20
2653;DHT22;1336;48.692;9.144;2023-03-14T11:40:52;13.50;97.20
2653;DHT22;1336;48.692;9.144;2023-03-14T11:41:46;13.40;97.20
2653;DHT22;1336;48.692;9.144;2023-03-14T11:42:38;13.30;97.20
2653;DHT22;1336;48.692;9.144;2023-03-14T11:43:34;13.30;97.20
2653;DHT22;1336;48.692;9.144;2023-03-14T11:44:33;13.30;97.20
2653;DHT22;1336;48.692;9.144;2023-03-14T11:45:28;13.30;97.20
2653;DHT22;1336;48.692;9.144;2023-03-14T11:46:24;13.30;97.20
2653;DHT22;1336;48.692;9.144;2023-03-14T11:47:19;13.30;97.20
2653;DHT22;1336;48.692;9.144;2023-03-14T11:48:18;13.40;97.20
2653;DHT22;1336;48.692;9.144;2023-03-14T11:49:16;13.40;97.20